createdAt,value
2023-01-21T00:03:57.226Z,30.02
2023-01-21T00:09:01.909Z,30.16
2023-01-21T00:14:06.610Z,29.75
2023-01-21T00:19:11.300Z,29.10
2023-01-21T00:24:15.912Z,30.00
2023-01-21T00:29:20.593Z,29.03
2023-01-21T00:34:25.158Z,29.46
2023-01-21T00:39:29.770Z,29.11
2023-01-21T00:44:34.331Z,29.88
2023-01-21T00:49:38.964Z,29.76
2023-01-21T00:54:43.516Z,29.52
2023-01-21T00:59:48.291Z,29.60
2023-01-21T01:04:52.882Z,29.70
2023-01-21T01:09:57.427Z,30.28
2023-01-21T01:15:01.986Z,29.00
2023-01-21T01:20:08.678Z,29.38
2023-01-21T01:25:13.567Z,29.33
2023-01-21T01:30:19.056Z,29.11
2023-01-21T01:35:23.748Z,29.02
2023-01-21T01:40:28.300Z,28.93
2023-01-21T01:45:32.919Z,29.49
2023-01-21T01:50:40.851Z,29.59
2023-01-21T01:55:45.764Z,29.17
2023-01-21T02:00:50.760Z,28.83
2023-01-21T02:05:55.781Z,28.62
2023-01-21T02:11:02.146Z,29.01
2023-01-21T02:16:23.605Z,28.42
2023-01-21T02:21:55.776Z,28.54
2023-01-21T02:27:18.547Z,28.83
2023-01-21T02:32:37.709Z,29.16
2023-01-21T02:37:58.653Z,28.94
2023-01-21T02:43:03.224Z,28.82
2023-01-21T02:48:19.857Z,28.23
2023-01-21T02:53:33.179Z,28.39
2023-01-21T02:58:40.841Z,29.05
2023-01-21T03:03:46.328Z,28.14
2023-01-21T03:09:01.458Z,28.43
2023-01-21T03:14:57.174Z,27.82
2023-01-21T03:20:13.495Z,28.69
2023-01-21T03:25:19.305Z,28.25
2023-01-21T03:30:27.695Z,28.78
2023-01-21T03:35:38.876Z,28.35
2023-01-21T03:41:15.400Z,27.94
2023-01-21T03:46:28.879Z,28.39
2023-01-21T03:51:41.709Z,27.96
2023-01-21T03:56:48.125Z,27.37
2023-01-21T04:01:53.083Z,27.86
2023-01-21T04:06:58.126Z,27.68
2023-01-21T04:12:03.275Z,27.45
2023-01-21T04:17:08.429Z,27.35
2023-01-21T04:22:13.303Z,27.22
2023-01-21T04:27:18.353Z,27.09
2023-01-21T04:32:23.333Z,27.04
2023-01-21T04:37:28.446Z,26.93
2023-01-21T04:42:33.067Z,26.57
2023-01-21T04:47:38.255Z,27.15
2023-01-21T04:52:44.969Z,27.21
2023-01-21T04:57:50.365Z,27.36
2023-01-21T05:02:55.505Z,27.39
2023-01-21T05:08:00.665Z,26.73
2023-01-21T05:13:05.895Z,26.97
2023-01-21T05:18:10.978Z,26.88
2023-01-21T05:23:16.008Z,27.50
2023-01-21T05:28:22.302Z,27.06
2023-01-21T05:33:32.364Z,27.09
2023-01-21T05:38:37.480Z,27.50
2023-01-21T05:43:42.575Z,26.52
2023-01-21T05:48:47.499Z,26.32
2023-01-21T05:53:52.652Z,27.47
2023-01-21T05:58:58.659Z,27.59
2023-01-21T06:04:03.734Z,27.08
2023-01-21T06:09:08.867Z,26.61
2023-01-21T06:14:13.713Z,26.51
2023-01-21T06:19:19.707Z,26.85
2023-01-21T06:24:27.348Z,26.84
2023-01-21T06:29:32.370Z,26.61
2023-01-21T06:34:37.427Z,26.88
2023-01-21T06:39:42.539Z,26.75
2023-01-21T06:44:49.204Z,26.62
2023-01-21T06:49:54.305Z,27.14
2023-01-21T06:54:59.256Z,26.66
2023-01-21T07:00:04.448Z,26.85
2023-01-21T07:05:09.893Z,26.99
2023-01-21T07:10:14.676Z,27.07
2023-01-21T07:15:20.187Z,27.73
2023-01-21T07:20:24.968Z,26.46
2023-01-21T07:25:30.021Z,26.62
2023-01-21T07:30:35.318Z,27.15
2023-01-21T07:35:40.762Z,26.59
2023-01-21T07:40:46.048Z,26.86
2023-01-21T07:45:51.077Z,26.93
2023-01-21T07:51:02.099Z,26.90
2023-01-21T07:56:09.245Z,27.00
2023-01-21T08:01:13.789Z,26.99
2023-01-21T08:06:18.591Z,27.17
2023-01-21T08:11:23.922Z,26.44
2023-01-21T08:16:28.933Z,26.67
2023-01-21T08:21:33.807Z,26.65
2023-01-21T08:26:38.768Z,26.59
2023-01-21T08:31:43.776Z,26.90
2023-01-21T08:36:48.852Z,26.81
2023-01-21T08:41:53.780Z,27.18
2023-01-21T08:46:58.319Z,27.30
2023-01-21T08:52:03.079Z,26.85
2023-01-21T08:57:08.503Z,26.50
2023-01-21T09:02:13.923Z,27.17
2023-01-21T09:07:18.953Z,26.88
2023-01-21T09:12:23.902Z,26.78
2023-01-21T09:17:29.869Z,26.49
2023-01-21T09:22:34.856Z,26.86
2023-01-21T09:27:40.106Z,26.80
2023-01-21T09:32:45.038Z,27.54
2023-01-21T09:37:49.979Z,26.80
2023-01-21T09:42:55.074Z,27.21
2023-01-21T09:48:01.673Z,27.40
2023-01-21T09:53:35.438Z,27.50
2023-01-21T09:58:51.812Z,27.32
2023-01-21T10:04:22.061Z,27.32
2023-01-21T10:09:45.268Z,28.37
2023-01-21T10:15:41.994Z,27.38
2023-01-21T10:21:36.548Z,27.56
2023-01-21T10:26:43.209Z,28.17
2023-01-21T10:32:12.003Z,27.85
2023-01-21T10:37:22.268Z,27.86
2023-01-21T10:43:07.011Z,27.99
2023-01-21T10:48:49.420Z,29.02
2023-01-21T10:54:38.597Z,28.31
2023-01-21T10:59:44.407Z,28.21
2023-01-21T11:04:49.384Z,29.35
2023-01-21T11:09:54.957Z,29.03
2023-01-21T11:15:02.272Z,28.30
2023-01-21T11:20:31.118Z,28.31
2023-01-21T11:25:43.082Z,27.90
2023-01-21T11:30:51.543Z,28.47
2023-01-21T11:35:59.763Z,28.78
2023-01-21T11:41:26.314Z,28.42
2023-01-21T11:46:42.310Z,28.92
2023-01-21T11:51:49.838Z,28.68
2023-01-21T11:57:00.340Z,28.30
2023-01-21T12:02:26.414Z,27.68
2023-01-21T12:07:35.460Z,28.38
2023-01-21T12:13:18.751Z,28.09
2023-01-21T12:18:42.329Z,29.73
2023-01-21T12:24:02.415Z,29.48
2023-01-21T12:29:36.116Z,29.09
2023-01-21T12:35:14.345Z,30.21
2023-01-21T12:40:42.019Z,29.73
2023-01-21T12:46:01.103Z,30.88
2023-01-21T12:51:12.813Z,30.58
2023-01-21T12:56:46.090Z,30.20
2023-01-21T13:01:59.555Z,30.85
2023-01-21T13:07:32.774Z,29.54
2023-01-21T13:12:41.117Z,30.19
2023-01-21T13:17:54.027Z,29.94
2023-01-21T13:23:36.819Z,29.59
2023-01-21T13:28:58.576Z,30.09
2023-01-21T13:34:28.745Z,28.96
2023-01-21T13:39:52.430Z,29.38
2023-01-21T13:45:17.830Z,29.69
2023-01-21T13:50:34.543Z,30.15
2023-01-21T13:56:16.284Z,29.62
2023-01-21T14:01:33.212Z,29.64
2023-01-21T14:06:57.094Z,31.10
2023-01-21T14:12:09.013Z,30.81
2023-01-21T14:17:45.071Z,30.65
2023-01-21T14:23:26.685Z,31.04
2023-01-21T14:28:46.748Z,30.04
2023-01-21T14:34:14.737Z,30.31
2023-01-21T14:39:23.303Z,30.44
2023-01-21T14:44:51.347Z,30.29
2023-01-21T14:49:59.080Z,30.35
2023-01-21T14:55:05.011Z,30.84
2023-01-21T15:00:28.004Z,29.83
2023-01-21T15:05:38.516Z,30.10
2023-01-21T15:10:43.958Z,30.75
2023-01-21T15:16:16.618Z,31.29
2023-01-21T15:21:39.689Z,30.23
2023-01-21T15:27:22.553Z,30.24
2023-01-21T15:32:53.214Z,30.63
2023-01-21T15:38:06.117Z,30.40
2023-01-21T15:43:45.411Z,30.40
2023-01-21T15:49:23.303Z,31.31
2023-01-21T15:54:51.639Z,30.17
2023-01-21T16:00:05.373Z,31.38
2023-01-21T16:05:19.997Z,31.47
2023-01-21T16:10:27.635Z,31.36
2023-01-21T16:16:06.003Z,31.39
2023-01-21T16:21:12.324Z,31.85
2023-01-21T16:26:31.963Z,31.38
2023-01-21T16:32:01.150Z,31.10
2023-01-21T16:37:29.008Z,31.95
2023-01-21T16:42:33.617Z,32.17
2023-01-21T16:47:40.360Z,31.67
2023-01-21T16:52:46.094Z,32.26
2023-01-21T16:57:52.924Z,32.63
2023-01-21T17:02:59.193Z,31.39
2023-01-21T17:08:11.225Z,31.86
2023-01-21T17:13:17.519Z,31.27
2023-01-21T17:18:24.299Z,31.49
2023-01-21T17:23:38.329Z,31.54
2023-01-21T17:28:47.533Z,31.56
2023-01-21T17:34:12.570Z,31.61
2023-01-21T17:39:37.034Z,31.87
2023-01-21T17:44:47.023Z,31.74
2023-01-21T17:50:02.131Z,31.87
2023-01-21T17:55:28.873Z,31.54
2023-01-21T18:00:46.500Z,32.18
2023-01-21T18:05:52.311Z,32.30
2023-01-21T18:10:56.904Z,33.08
2023-01-21T18:16:01.584Z,32.41
2023-01-21T18:21:07.359Z,32.86
2023-01-21T18:26:26.961Z,32.79
2023-01-21T18:31:31.875Z,33.00
2023-01-21T18:36:37.709Z,32.99
2023-01-21T18:41:42.364Z,32.56
2023-01-21T18:46:47.364Z,32.13
2023-01-21T18:51:52.507Z,32.52
2023-01-21T18:56:57.089Z,32.03
2023-01-21T19:02:01.812Z,32.32
2023-01-21T19:07:17.424Z,32.54
2023-01-21T19:12:22.451Z,33.66
2023-01-21T19:17:34.032Z,32.10
2023-01-21T19:22:38.633Z,33.87
2023-01-21T19:27:47.327Z,32.28
2023-01-21T19:32:53.432Z,33.21
2023-01-21T19:37:58.087Z,32.63
2023-01-21T19:43:02.825Z,32.75
2023-01-21T19:48:17.364Z,33.96
2023-01-21T19:53:23.583Z,33.47
2023-01-21T19:58:32.057Z,33.87
2023-01-21T20:03:36.557Z,34.56
2023-01-21T20:08:41.066Z,34.08
2023-01-21T20:13:45.715Z,33.52
2023-01-21T20:18:51.083Z,34.18
2023-01-21T20:23:55.684Z,33.86
2023-01-21T20:29:04.151Z,33.89
2023-01-21T20:34:08.252Z,33.43
2023-01-21T20:39:15.023Z,33.29
2023-01-21T20:44:20.079Z,34.89
2023-01-21T20:49:24.656Z,34.22
2023-01-21T20:54:29.220Z,33.61
2023-01-21T20:59:35.673Z,34.01
2023-01-21T21:04:41.324Z,33.96
2023-01-21T21:09:45.953Z,34.61
2023-01-21T21:14:50.566Z,34.51
2023-01-21T21:19:55.270Z,34.62
2023-01-21T21:24:59.832Z,34.72
2023-01-21T21:30:05.285Z,34.59
2023-01-21T21:35:32.698Z,34.28
2023-01-21T21:40:37.522Z,34.48
2023-01-21T21:46:02.563Z,35.10
2023-01-21T21:51:11.918Z,35.20
2023-01-21T21:56:19.449Z,34.96
2023-01-21T22:01:30.474Z,34.33
2023-01-21T22:06:35.550Z,33.57
2023-01-21T22:11:40.335Z,35.17
2023-01-21T22:16:45.453Z,35.42
2023-01-21T22:21:50.042Z,34.55
2023-01-21T22:26:54.593Z,34.48
2023-01-21T22:31:59.066Z,34.57
2023-01-21T22:37:03.676Z,35.03
2023-01-21T22:42:08.301Z,35.08
2023-01-21T22:47:12.849Z,34.74
2023-01-21T22:52:17.503Z,35.21
2023-01-21T22:57:22.159Z,35.15
2023-01-21T23:02:27.782Z,35.39
2023-01-21T23:07:33.345Z,34.53
2023-01-21T23:12:37.908Z,34.62
2023-01-21T23:17:41.975Z,34.45
2023-01-21T23:22:46.039Z,34.66
2023-01-21T23:27:52.585Z,34.16
2023-01-21T23:32:57.094Z,35.31
2023-01-21T23:38:02.075Z,34.58
2023-01-21T23:43:06.586Z,35.03
2023-01-21T23:48:11.137Z,35.28
2023-01-21T23:53:15.715Z,35.29
2023-01-21T23:58:21.363Z,35.46
